»·PEaware :: N8872B KSBP-KCNO

N8872B :: KSBP-KCNO

FLIGHT INFORMATION

Flight Status: Arrived
Operator: Privately registered:
United States
More flights under this callsign
Pilot: Chase C. (10526)
Aircraft: CIRRUS SR-22
(SR22)
More flights by this aircraft type
Origin: KSBP San Luis Co Regl
United States
Destination: KCNO Chino
United States
More flights between these airports :: More routes between these airports
Route: +
File this flight plan on PilotEdge
Remarks:
Altitude:
(Current/Filed)
11,500ft
Speed:
(Current/Filed)
0kts
Departed: 17-Jun-17 07:10 AM
Arrived: 17-Jun-17 08:30 AM
Distance/Time
Traveled:
166nm/1:20
Distance/Time
To Go:
Arrived

Flight Plot

Page will automatically refresh every two minutes.

Flight plan parsing failed; only flown route is shown


Map Options




Map Legend


Flown Route
Filed Route
Departure Airport
Arrival Airport
Navaid (VOR, NDB)
Fix

Horizontal Profiles

Position Reports

Time Latitude Longitude Heading Altitude Ground
Speed
17-Jun-17 07:06 35.238838 -120.639161 270 214ft 0kts
17-Jun-17 07:07 35.237837 -120.639834 151 214ft 9kts
17-Jun-17 07:08 35.236667 -120.637952 123 214ft 27kts
17-Jun-17 07:09 35.233494 -120.632424 140 214ft 12kts
17-Jun-17 07:10 35.233156 -120.632235 303 214ft 0kts
17-Jun-17 07:11 35.232771 -120.632911 277 214ft 9kts
17-Jun-17 07:12 35.241882 -120.648848 303 478ft 121kts
17-Jun-17 07:13 35.265104 -120.668620 17 1537ft 143kts
17-Jun-17 07:14 35.264911 -120.636021 127 2642ft 126kts
17-Jun-17 07:15 35.247556 -120.607940 128 3667ft 128kts
17-Jun-17 07:16 35.226252 -120.574133 128 4786ft 148kts
17-Jun-17 07:17 35.203559 -120.538589 128 5847ft 155kts
17-Jun-17 07:18 35.181379 -120.501508 116 6894ft 158kts
17-Jun-17 07:19 35.163477 -120.459887 116 7942ft 160kts
17-Jun-17 07:20 35.144492 -120.417182 116 9016ft 161kts
17-Jun-17 07:21 35.125366 -120.375118 116 10073ft 162kts
17-Jun-17 07:22 35.108168 -120.337927 117 11004ft 163kts
17-Jun-17 07:23 35.088320 -120.295232 117 11499ft 184kts
17-Jun-17 07:24 35.067395 -120.249850 117 11492ft 196kts
17-Jun-17 07:25 35.045319 -120.201840 117 11494ft 197kts
17-Jun-17 07:26 35.022327 -120.151752 117 11500ft 198kts
17-Jun-17 07:27 34.999128 -120.101038 117 11505ft 198kts
17-Jun-17 07:28 34.977736 -120.053894 116 11511ft 199kts
17-Jun-17 07:29 34.955806 -120.005313 117 11516ft 199kts
17-Jun-17 07:30 34.933589 -119.955676 116 11518ft 199kts
17-Jun-17 07:31 34.913321 -119.910079 116 11518ft 200kts
17-Jun-17 07:32 34.895355 -119.869400 116 11517ft 200kts
17-Jun-17 07:33 34.882402 -119.839905 116 11516ft 200kts
17-Jun-17 07:34 34.871251 -119.814442 116 11516ft 200kts
17-Jun-17 07:35 34.853680 -119.774233 116 11514ft 200kts
17-Jun-17 07:36 34.836076 -119.733976 116 11511ft 200kts
17-Jun-17 07:37 34.818876 -119.694720 116 11507ft 200kts
17-Jun-17 07:38 34.802034 -119.656383 116 11504ft 200kts
17-Jun-17 07:39 34.785234 -119.618357 117 11503ft 200kts
17-Jun-17 07:40 34.769898 -119.583595 116 11500ft 200kts
17-Jun-17 07:41 34.755166 -119.550195 116 11499ft 200kts
17-Jun-17 07:42 34.739924 -119.515526 116 11499ft 200kts
17-Jun-17 07:43 34.721990 -119.474900 116 11499ft 200kts
17-Jun-17 07:44 34.703855 -119.433813 116 11499ft 200kts
17-Jun-17 07:45 34.685402 -119.392152 116 11499ft 201kts
17-Jun-17 07:46 34.668110 -119.353064 116 11499ft 201kts
17-Jun-17 07:47 34.653569 -119.320104 117 11497ft 201kts
17-Jun-17 07:48 34.637500 -119.282555 116 11498ft 201kts
17-Jun-17 07:49 34.621651 -119.245911 116 11498ft 201kts
17-Jun-17 07:50 34.605917 -119.210152 117 11498ft 201kts
17-Jun-17 07:51 34.590919 -119.176015 116 11498ft 201kts
17-Jun-17 07:52 34.575791 -119.141520 116 11498ft 201kts
17-Jun-17 07:53 34.560744 -119.107047 116 11498ft 201kts
17-Jun-17 07:54 34.546369 -119.074139 116 11498ft 201kts
17-Jun-17 07:55 34.531744 -119.040626 116 11498ft 201kts
17-Jun-17 07:56 34.516914 -119.006706 116 11494ft 201kts
17-Jun-17 07:57 34.503070 -118.974827 116 11492ft 200kts
17-Jun-17 07:58 34.487793 -118.939547 116 11493ft 198kts
17-Jun-17 07:59 34.470985 -118.900676 116 11492ft 195kts
17-Jun-17 08:00 34.455360 -118.863818 115 11491ft 195kts
17-Jun-17 08:01 34.439334 -118.824482 115 11492ft 194kts
17-Jun-17 08:02 34.423023 -118.784153 115 11492ft 194kts
17-Jun-17 08:03 34.406594 -118.743498 115 11494ft 194kts
17-Jun-17 08:04 34.390505 -118.703603 115 11495ft 194kts
17-Jun-17 08:05 34.373088 -118.660254 115 11497ft 195kts
17-Jun-17 08:06 34.354010 -118.612783 115 11499ft 195kts
17-Jun-17 08:07 34.334720 -118.564847 115 11501ft 195kts
17-Jun-17 08:08 34.315764 -118.517651 115 11500ft 195kts
17-Jun-17 08:09 34.296888 -118.470583 115 11498ft 195kts
17-Jun-17 08:10 34.277564 -118.422711 115 11496ft 195kts
17-Jun-17 08:11 34.258904 -118.376338 115 11494ft 195kts
17-Jun-17 08:12 34.243521 -118.338081 115 11493ft 195kts
17-Jun-17 08:13 34.225717 -118.293822 115 11492ft 195kts
17-Jun-17 08:14 34.207852 -118.249381 115 11495ft 195kts
17-Jun-17 08:15 34.189873 -118.204462 115 11492ft 195kts
17-Jun-17 08:16 34.172638 -118.161456 115 11483ft 195kts
17-Jun-17 08:17 34.155605 -118.119009 115 11036ft 206kts
17-Jun-17 08:18 34.139474 -118.078591 115 10789ft 196kts
17-Jun-17 08:20 34.124426 -118.040264 114 10276ft 192kts
17-Jun-17 08:21 34.109030 -117.999958 114 9704ft 192kts
17-Jun-17 08:22 34.093196 -117.958436 114 8981ft 191kts
17-Jun-17 08:23 34.077883 -117.918230 114 8286ft 188kts
17-Jun-17 08:24 34.061701 -117.875678 114 7570ft 186kts
17-Jun-17 08:25 34.046304 -117.835170 114 6653ft 188kts
17-Jun-17 08:26 34.029361 -117.790550 114 5505ft 186kts
17-Jun-17 08:27 34.014181 -117.750385 114 4362ft 179kts
17-Jun-17 08:28 34.000958 -117.715301 114 3343ft 175kts
17-Jun-17 08:29 33.988549 -117.682421 114 2387ft 176kts
17-Jun-17 08:30 33.991406 -117.647920 49 1697ft 111kts
17-Jun-17 08:31 33.997164 -117.624513 128 1492ft 105kts
17-Jun-17 08:32 33.980414 -117.630272 223 655ft 75kts
17-Jun-17 08:33 33.976923 -117.635636 271 652ft 0kts
17-Jun-17 08:34 33.976923 -117.635645 269 652ft 0kts
17-Jun-17 08:35 33.977167 -117.639246 356 652ft 16kts
17-Jun-17 08:36 33.978444 -117.639642 270 652ft 0kts
17-Jun-17 08:37 33.978444 -117.639642 270 652ft 0kts
17-Jun-17 08:38 33.978444 -117.639642 270 652ft 0kts

Navigation Log

Ident Type
Flight plan parsing failed, navigation log unavailable